Data for 05/16/2007

Time Sea-Level Adjusted Pressure Absolute Pressure Temperature Relative Humidity Dew Point   
(mb) (inHg) (mb) (inHg) (C) (F) (%) (C) (F)
00:05 1023 30.21 852 25.16 11.2 52.1 49 0.9 33.7
00:10 1022 30.18 852 25.16 11.1 52 49 0.9 33.7
00:15 1022 30.18 852 25.16 11.1 51.9 49 0.8 33.4
00:20 1022 30.18 852 25.16 11 51.9 49 0.8 33.4
00:25 1022 30.18 852 25.16 11 51.8 49 0.8 33.5
00:30 1022 30.18 852 25.16 11 51.8 49 0.8 33.4
00:35 1022 30.18 852 25.16 11 51.8 50 0.9 33.6
00:40 1022 30.18 851 25.13 10.9 51.6 50 0.9 33.6
00:45 1022 30.18 851 25.13 10.9 51.5 50 0.9 33.7
00:50 1022 30.18 851 25.13 10.8 51.4 50 0.9 33.6
00:55 1022 30.18 852 25.16 10.8 51.5 50 1 33.7
01:00 1022 30.18 851 25.13 10.8 51.4 50 0.9 33.7
01:05 1022 30.18 851 25.13 10.7 51.2 51 1 33.9
01:10 1022 30.18 851 25.13 10.6 51.2 51 1 33.8
01:15 1022 30.18 851 25.13 10.7 51.2 51 1.1 33.9
01:20 1022 30.18 851 25.13 10.6 51 52 1.1 33.9
01:25 1022 30.18 851 25.13 10.5 51 52 1 33.9
01:30 1022 30.18 851 25.13 10.5 50.9 52 1.1 34
01:35 1022 30.18 851 25.13 10.5 50.9 52 1 33.9
01:40 1022 30.18 851 25.13 10.4 50.8 52 1.1 34
01:45 1022 30.18 851 25.13 10.4 50.8 53 1.2 34.1
01:50 1022 30.18 851 25.13 10.3 50.6 52 1.1 33.9
01:55 1022 30.18 851 25.13 10.3 50.6 53 1.1 34.1
02:00 1022 30.18 851 25.13 10.3 50.5 53 1.1 34
02:05 1022 30.18 851 25.13 10.3 50.6 53 1.2 34.2
02:10 1022 30.18 851 25.13 10.3 50.5 53 1.3 34.3
02:15 1022 30.18 851 25.13 10.3 50.5 54 1.4 34.5
02:20 1022 30.18 851 25.13 10.2 50.3 54 1.4 34.4
02:25 1022 30.18 851 25.13 10.1 50.1 55 1.4 34.5
02:30 1022 30.18 851 25.13 10 50 55 1.4 34.6
02:35 1022 30.18 851 25.13 9.9 49.9 56 1.6 34.8
02:40 1022 30.18 851 25.13 9.9 49.7 56 1.5 34.8
02:45 1022 30.18 851 25.13 9.8 49.7 56 1.5 34.8
02:50 1022 30.18 851 25.13 9.7 49.5 57 1.6 34.8
02:55 1022 30.18 851 25.13 9.7 49.5 57 1.6 34.8
03:00 1022 30.18 851 25.13 9.7 49.4 57 1.5 34.7
03:05 1022 30.18 851 25.13 9.7 49.4 57 1.6 34.8
03:10 1022 30.18 851 25.13 9.6 49.3 57 1.6 34.9
03:15 1022 30.18 851 25.13 9.6 49.3 57 1.6 34.8
03:20 1022 30.18 851 25.13 9.6 49.2 57 1.5 34.6
03:25 1022 30.18 851 25.13 9.6 49.2 57 1.6 34.9
03:30 1022 30.18 851 25.13 9.5 49.1 57 1.5 34.7
03:35 1022 30.18 851 25.13 9.5 49.1 57 1.5 34.8
03:40 1022 30.18 851 25.13 9.4 49 58 1.6 34.8
03:45 1022 30.18 851 25.13 9.3 48.8 58 1.5 34.6
03:50 1022 30.18 851 25.13 9.4 48.9 58 1.5 34.8
03:55 1022 30.18 851 25.13 9.3 48.8 58 1.5 34.7
04:00 1022 30.18 851 25.13 9.4 48.8 58 1.4 34.6
04:05 1022 30.18 851 25.13 9.4 48.9 58 1.6 34.8
04:10 1022 30.18 851 25.13 9.4 48.8 58 1.5 34.7
04:15 1022 30.18 851 25.13 9.3 48.7 58 1.5 34.8
04:20 1022 30.18 851 25.13 9.3 48.7 58 1.6 34.8
04:25 1022 30.18 851 25.13 9.2 48.5 59 1.6 34.8
04:30 1022 30.18 851 25.13 9.1 48.3 59 1.6 34.8
04:35 1022 30.18 851 25.13 9 48.2 60 1.6 34.8
04:40 1022 30.18 851 25.13 9 48.2 59 1.5 34.8
04:45 1022 30.18 851 25.13 9 48.1 60 1.6 34.9
04:50 1022 30.18 851 25.13 8.9 48 60 1.5 34.8
04:55 1022 30.18 851 25.13 8.9 48 60 1.6 34.8
05:00 1022 30.18 851 25.13 8.9 48 60 1.6 34.8
05:05 1022 30.18 851 25.13 8.9 47.9 60 1.6 34.9
05:10 1022 30.18 851 25.13 8.9 48 60 1.6 34.9
05:15 1022 30.18 851 25.13 8.9 48 60 1.6 34.8
05:20 1022 30.18 851 25.13 8.8 47.9 60 1.6 34.8
05:25 1022 30.18 851 25.13 8.8 47.9 60 1.6 34.9
05:30 1022 30.18 851 25.13 8.8 47.9 60 1.5 34.8
05:35 1022 30.18 851 25.13 8.7 47.7 61 1.6 34.8
05:40 1022 30.18 851 25.13 8.7 47.7 60 1.6 34.8
05:45 1022 30.18 851 25.13 8.7 47.7 60 1.5 34.8
05:50 1022 30.18 851 25.13 8.7 47.6 61 1.6 34.9
05:55 1022 30.18 851 25.13 8.6 47.5 61 1.6 34.8
06:00 1022 30.18 851 25.13 8.6 47.5 61 1.5 34.7
06:05 1022 30.18 851 25.13 8.6 47.5 61 1.5 34.8
06:10 1022 30.18 851 25.13 8.6 47.4 62 1.6 35
06:15 1022 30.18 851 25.13 8.5 47.3 62 1.6 34.9
06:20 1022 30.18 851 25.13 8.4 47.1 63 1.7 35
06:25 1022 30.18 851 25.13 8.3 46.9 63 1.6 34.9
06:30 1022 30.18 851 25.13 8.3 47 62 1.6 34.8
06:35 1022 30.18 851 25.13 8.4 47.2 62 1.6 34.9
06:40 1022 30.18 851 25.13 8.6 47.5 62 1.7 35
06:45 1022 30.18 851 25.13 8.7 47.7 61 1.5 34.8
06:50 1022 30.18 851 25.13 9 48.1 60 1.7 35
06:55 1022 30.18 851 25.13 9.1 48.3 60 1.7 35
07:00 1022 30.18 851 25.13 9.2 48.5 59 1.6 34.9
07:05 1022 30.18 851 25.13 9.3 48.8 58 1.6 34.8
07:10 1022 30.18 851 25.13 9.4 48.9 58 1.6 34.8
07:15 1022 30.18 851 25.13 9.5 49.1 58 1.6 35
07:20 1022 30.18 851 25.13 9.6 49.3 57 1.6 34.9
07:25 1022 30.18 851 25.13 9.7 49.4 58 1.8 35.2
07:30 1022 30.18 851 25.13 9.8 49.6 58 1.9 35.3
07:35 1022 30.18 851 25.13 9.9 49.8 57 1.7 35.1
07:40 1022 30.18 851 25.13 10.1 50.2 56 1.7 35.1
07:45 1022 30.18 851 25.13 10.3 50.5 55 1.7 35.1
07:50 1022 30.18 851 25.13 10.4 50.7 54 1.6 34.9
07:55 1022 30.18 851 25.13 10.5 50.8 54 1.7 35.1
08:00 1022 30.18 851 25.13 10.7 51.2 54 1.8 35.2
08:05 1022 30.18 851 25.13 10.8 51.5 53 1.7 35
08:10 1022 30.18 851 25.13 10.9 51.6 53 1.8 35.3
08:15 1022 30.18 851 25.13 11.1 51.9 53 1.8 35.3
08:20 1022 30.18 851 25.13 11.3 52.3 52 1.9 35.4
08:25 1022 30.18 851 25.13 11.5 52.7 51 1.9 35.4
08:30 1022 30.18 851 25.13 11.7 53.1 50 1.7 35.1
08:35 1022 30.18 851 25.13 11.7 53 51 1.9 35.4
08:40 1022 30.18 851 25.13 12.1 53.7 50 2 35.5
08:45 1022 30.18 851 25.13 12.3 54.1 49 1.9 35.5
08:50 1022 30.18 851 25.13 12.5 54.5 49 2.3 36.1
08:55 1022 30.18 851 25.13 12.8 55 48 2.2 35.9
09:00 1022 30.18 851 25.13 12.9 55.2 48 2.1 35.8
09:05 1022 30.18 851 25.13 13.1 55.7 47 2.1 35.7
09:10 1022 30.18 851 25.13 13.4 56.2 45 2 35.5
09:15 1022 30.18 851 25.13 13.5 56.3 45 1.8 35.3
09:20 1022 30.18 851 25.13 13.9 57 45 2.1 35.8
09:25 1022 30.18 851 25.13 14.2 57.5 44 2.3 36.2
09:30 1022 30.18 851 25.13 14.2 57.6 44 2.2 36
09:35 1022 30.18 851 25.13 14.4 58 42 1.9 35.4
09:40 1022 30.18 851 25.13 14.6 58.2 42 1.7 35.1
09:45 1022 30.18 851 25.13 15 59 41 2.1 35.8
09:50 1022 30.18 851 25.13 15 59 41 1.9 35.5
09:55 1022 30.18 851 25.13 15.3 59.5 40 1.8 35.3
10:00 1022 30.18 851 25.13 15.4 59.7 40 2.1 35.8
10:05 1022 30.18 851 25.13 15.5 60 40 2.2 36
10:10 1022 30.18 851 25.13 15.7 60.2 40 2.2 36
10:15 1022 30.18 851 25.13 15.8 60.4 38 1.6 34.9
10:20 1022 30.18 851 25.13 15.9 60.7 39 2 35.6
10:25 1022 30.18 851 25.13 16.2 61.1 39 2.2 35.9
10:30 1022 30.18 851 25.13 16.2 61.2 39 2.4 36.4
10:35 1022 30.18 851 25.13 16.6 61.9 38 2.5 36.4
10:40 1021 30.15 851 25.13 17 62.6 37 2.5 36.5
10:45 1021 30.15 851 25.13 17 62.6 36 2.1 35.7
10:50 1021 30.15 851 25.13 16.8 62.2 38 2.7 36.8
10:55 1021 30.15 850 25.1 17.1 62.8 36 1.9 35.4
11:00 1021 30.15 850 25.1 17.3 63.2 37 2.6 36.7
11:05 1021 30.15 850 25.1 17.6 63.6 36 2.5 36.4
11:10 1021 30.15 850 25.1 17.9 64.1 34 1.8 35.3
11:15 1021 30.15 850 25.1 17.7 63.9 35 2.4 36.3
11:20 1021 30.15 850 25.1 18 64.4 40 4.4 40
11:25 1021 30.15 850 25.1 18.5 65.3 37 3.8 38.8
11:30 1021 30.15 850 25.1 18.3 65 39 4.4 39.8
11:35 1021 30.15 850 25.1 18.6 65.5 40 4.9 40.8
11:40 1021 30.15 850 25.1 18.4 65.1 40 4.8 40.6
11:45 1021 30.15 850 25.1 17.6 63.7 42 4.6 40.2
11:50 1021 30.15 850 25.1 18.4 65.2 39 4.5 40.2
11:55 1021 30.15 850 25.1 18.7 65.7 38 4.4 39.8
12:00 1021 30.15 850 25.1 19.6 67.2 38 4.9 40.8
12:05 1021 30.15 850 25.1 19.4 67 39 5.2 41.3
12:10 1021 30.15 850 25.1 19 66.2 40 5.3 41.5
12:15 1021 30.15 850 25.1 18.8 65.8 39 4.6 40.2
12:20 1021 30.15 850 25.1 19.1 66.3 39 4.8 40.7
12:25 1021 30.15 850 25.1 19.6 67.3 38 4.9 40.9
12:30 1020 30.12 850 25.1 20 67.9 35 4.4 39.8
12:35 1020 30.12 850 25.1 19.6 67.2 36 4.2 39.6
12:40 1020 30.12 850 25.1 20.3 68.5 36 4.8 40.7
12:45 1020 30.12 850 25.1 19.9 67.9 35 4.4 39.9
12:50 1020 30.12 850 25.1 21.4 70.5 32 4.1 39.4
12:55 1020 30.12 849 25.07 21.8 71.2 33 5.2 41.3
13:00 1020 30.12 849 25.07 21.7 71 34 5.5 41.8
13:05 1020 30.12 849 25.07 20.7 69.3 34 4.7 40.4
13:10 1020 30.12 849 25.07 20.7 69.2 34 4.3 39.8
13:15 1020 30.12 849 25.07 20.7 69.2 34 4.6 40.3
13:20 1020 30.12 849 25.07 21.1 69.9 35 5.1 41.1
13:25 1020 30.12 849 25.07 21 69.8 34 4.8 40.6
13:30 1020 30.12 849 25.07 21 69.8 34 4.8 40.7
13:35 1020 30.12 849 25.07 21.8 71.3 32 4.5 40.2
13:40 1020 30.12 849 25.07 21.3 70.3 34 5 41
13:45 1020 30.12 849 25.07 21.9 71.4 32 4.6 40.3
13:50 1020 30.12 849 25.07 23.1 73.5 30 4.7 40.4
13:55 1019 30.09 849 25.07 23.7 74.7 30 5.5 41.8
14:00 1019 30.09 849 25.07 22.9 73.2 31 4.9 40.8
14:05 1019 30.09 849 25.07 22.7 72.8 30 4.3 39.7
14:10 1019 30.09 849 25.07 22.8 73 30 4.4 39.9
14:15 1019 30.09 848 25.04 22.9 73.2 24 1.2 34.2
14:20 1019 30.09 848 25.04 22.7 72.8 28 3.3 37.9
14:25 1019 30.09 848 25.04 23.1 73.6 26 2.7 36.8
14:30 1019 30.09 848 25.04 23.4 74.1 25 2.3 36.1
14:35 1019 30.09 848 25.04 24 75.1 24 2.6 36.7
14:40 1019 30.09 848 25.04 23.4 74.1 25 2.4 36.3
14:45 1019 30.09 848 25.04 23.4 74.1 24 2 35.6
14:50 1019 30.09 848 25.04 24.1 75.3 24 2.3 36.1
14:55 1019 30.09 848 25.04 24.4 76 21 1 33.8
15:00 1019 30.09 848 25.04 23.9 75 21 0.4 32.8
15:05 1019 30.09 848 25.04 24.4 75.9 19 -0.4 31.2
15:10 1019 30.09 848 25.04 24.2 75.5 18 -1.7 28.9
15:15 1019 30.09 848 25.04 24.3 75.7 16 -3.1 26.5
15:20 1019 30.09 848 25.04 24 75.1 19 -0.8 30.5
15:25 1019 30.09 848 25.04 24.2 75.5 17 -1.8 28.7
15:30 1019 30.09 848 25.04 24.8 76.6 18 -0.8 30.5
15:35 1019 30.09 848 25.04 26 78.7 16 -1.7 29
15:40 1019 30.09 848 25.04 25 76.9 19 0.1 32.1
15:45 1018 30.06 848 25.04 24.4 75.8 20 0.2 32.4
15:50 1018 30.06 848 25.04 24.4 76 18 -1.5 29.3
15:55 1018 30.06 848 25.04 24.5 76.2 18 -1.2 29.9
16:00 1018 30.06 847 25.01 24.5 76.2 18 -1 30.2
16:05 1018 30.06 847 25.01 24.9 76.9 21 1.6 34.9
16:10 1018 30.06 847 25.01 24.2 75.6 24 2.4 36.3
16:15 1018 30.06 847 25.01 24.1 75.3 22 1.5 34.6
16:20 1018 30.06 847 25.01 24.3 75.8 22 1.2 34.2
16:25 1018 30.06 847 25.01 23.8 74.9 22 1.2 34.2
16:30 1018 30.06 847 25.01 24.3 75.8 22 1.4 34.5
16:35 1018 30.06 847 25.01 24.3 75.8 21 1 33.8
16:40 1018 30.06 847 25.01 24.8 76.6 21 1.4 34.6
16:45 1018 30.06 847 25.01 24.5 76.1 22 1.5 34.6
16:50 1018 30.06 847 25.01 24.6 76.3 24 3.1 37.5
16:55 1018 30.06 847 25.01 23.9 74.9 25 2.9 37.3
17:00 1018 30.06 847 25.01 23.8 74.8 26 3.5 38.2
17:05 1018 30.06 847 25.01 23.6 74.4 27 3.5 38.3
17:10 1018 30.06 847 25.01 23.4 74.2 27 3.4 38.1
17:15 1018 30.06 847 25.01 23.7 74.7 28 4.6 40.3
17:20 1018 30.06 847 25.01 23.5 74.3 28 4.2 39.6
17:25 1018 30.06 847 25.01 23.3 73.9 29 4.3 39.7
17:30 1018 30.06 847 25.01 23.4 74 27 3.8 38.8
17:35 1018 30.06 847 25.01 23.3 73.9 28 4.1 39.5
17:40 1018 30.06 847 25.01 23.1 73.6 29 4.2 39.6
17:45 1018 30.06 847 25.01 23 73.3 30 4.5 40.2
17:50 1017 30.03 847 25.01 23 73.5 28 3.7 38.6
17:55 1017 30.03 847 25.01 23.1 73.5 27 3.5 38.3
18:00 1017 30.03 847 25.01 22.8 73.1 28 3.5 38.3
18:05 1017 30.03 847 25.01 22.6 72.7 29 3.8 38.8
18:10 1017 30.03 847 25.01 22.5 72.4 29 3.9 39.1
18:15 1017 30.03 846 24.98 22.5 72.6 31 4.7 40.4
18:20 1017 30.03 846 24.98 22.5 72.5 33 5.5 42
18:25 1017 30.03 846 24.98 22.2 72 33 5.6 42
18:30 1017 30.03 846 24.98 22.3 72.1 34 5.8 42.4
18:35 1017 30.03 846 24.98 22.2 72 33 5.4 41.6
18:40 1017 30.03 846 24.98 21.8 71.2 33 5.1 41.1
18:45 1017 30.03 846 24.98 21.6 71 34 5.4 41.7
18:50 1017 30.03 846 24.98 21.4 70.6 35 5.5 41.8
18:55 1017 30.03 846 24.98 21.3 70.3 35 5.4 41.8
19:00 1017 30.03 846 24.98 21.1 70.1 35 5.2 41.4
19:05 1017 30.03 846 24.98 21.2 70.1 35 5.3 41.5
19:10 1017 30.03 846 24.98 21 69.7 36 5.6 42.2
19:15 1017 30.03 846 24.98 20.9 69.6 36 5.4 41.7
19:20 1017 30.03 846 24.98 20.7 69.3 37 5.7 42.3
19:25 1017 30.03 846 24.98 20.5 69 37 5.4 41.8
19:30 1017 30.03 846 24.98 20.4 68.8 38 5.7 42.3
19:35 1017 30.03 846 24.98 20.3 68.5 39 6 42.8
19:40 1017 30.03 846 24.98 20.1 68.2 41 6.6 43.8
19:45 1017 30.03 846 24.98 20 68 39 5.9 42.6
19:50 1017 30.03 846 24.98 19.9 67.8 41 6.3 43.3
19:55 1017 30.03 846 24.98 19.8 67.6 42 6.6 43.9
20:00 1017 30.03 846 24.98 19.6 67.3 42 6.6 43.9
20:05 1017 30.03 846 24.98 19.4 67 43 6.6 43.9
20:10 1017 30.03 846 24.98 19.3 66.7 44 6.8 44.3
20:15 1017 30.03 846 24.98 19.2 66.5 44 6.7 44
20:20 1017 30.03 846 24.98 19.1 66.4 44 6.7 44.1
20:25 1017 30.03 846 24.98 19 66.1 44 6.6 43.8
20:30 1017 30.03 846 24.98 18.9 66.1 44 6.5 43.7
20:35 1017 30.03 846 24.98 18.9 66 44 6.4 43.6
20:40 1017 30.03 846 24.98 18.8 65.9 44 6.6 43.9
20:45 1017 30.03 846 24.98 18.7 65.7 44 6.5 43.6
20:50 1017 30.03 846 24.98 18.5 65.3 46 6.7 44.1
20:55 1017 30.03 846 24.98 18.3 65 46 6.6 43.9
21:00 1017 30.03 846 24.98 18.3 64.9 46 6.6 44
21:05 1017 30.03 846 24.98 18.1 64.6 47 6.8 44.3
21:10 1017 30.03 846 24.98 17.9 64.3 48 6.9 44.4
21:15 1017 30.03 846 24.98 17.8 64 48 6.9 44.4
21:20 1017 30.03 846 24.98 17.7 63.9 48 6.8 44.2
21:25 1017 30.03 846 24.98 17.7 63.8 49 6.9 44.4
21:30 1017 30.03 846 24.98 17.6 63.7 49 6.8 44.3
21:35 1017 30.03 846 24.98 17.6 63.7 49 6.8 44.2
21:40 1017 30.03 846 24.98 17.6 63.7 49 6.8 44.3
21:45 1017 30.03 846 24.98 17.6 63.6 49 6.8 44.2
21:50 1017 30.03 846 24.98 17.6 63.7 48 6.7 44.1
21:55 1017 30.03 847 25.01 17.5 63.5 49 6.7 44.1
22:00 1018 30.06 847 25.01 17.4 63.4 49 6.8 44.2
22:05 1018 30.06 847 25.01 17.4 63.3 49 6.7 44.1
22:10 1018 30.06 847 25.01 17.4 63.2 50 6.9 44.4
22:15 1018 30.06 848 25.04 17.2 62.9 49 6.6 43.9
22:20 1018 30.06 848 25.04 17.2 62.9 46 5.7 42.2
22:25 1019 30.09 848 25.04 17.1 62.8 48 6.2 43.1
22:30 1019 30.09 848 25.04 16.9 62.5 49 6.3 43.4
22:35 1019 30.09 848 25.04 16.9 62.3 49 6.2 43.1
22:40 1018 30.06 848 25.04 17 62.5 47 5.6 42
22:45 1018 30.06 848 25.04 17 62.6 47 5.7 42.3
22:50 1018 30.06 848 25.04 17 62.6 44 4.8 40.6
22:55 1018 30.06 847 25.01 17.2 63 39 3.1 37.5
23:00 1018 30.06 847 25.01 17.3 63.2 37 2.6 36.6
23:05 1018 30.06 847 25.01 17.4 63.2 41 4 39.2
23:10 1018 30.06 847 25.01 16.9 62.5 43 4.6 40.2
23:15 1018 30.06 847 25.01 16.6 61.9 46 5.1 41.2
23:20 1018 30.06 847 25.01 15.9 60.7 52 6.1 43
23:25 1018 30.06 847 25.01 15.8 60.4 48 4.9 40.8
23:30 1018 30.06 847 25.01 15.9 60.7 44 3.9 39.1
23:35 1018 30.06 847 25.01 16.5 61.6 40 2.8 37
23:40 1018 30.06 847 25.01 16.7 62.1 41 3.6 38.4
23:45 1018 30.06 847 25.01 16.8 62.3 40 3.3 37.9
23:50 1018 30.06 847 25.01 16.9 62.4 40 3.2 37.8
23:55 1018 30.06 847 25.01 16.9 62.4 45 4.9 40.9
24:00 1018 30.06 847 25.01 16.4 61.4 43 4 39.2